createdAt,value
2018-09-17T00:01:43.022Z,15.00
2018-09-17T00:04:11.596Z,14.90
2018-09-17T00:06:40.695Z,14.90
2018-09-17T00:09:09.925Z,14.90
2018-09-17T00:11:38.258Z,14.90
2018-09-17T00:14:06.685Z,14.90
2018-09-17T00:16:34.992Z,14.80
2018-09-17T00:19:03.441Z,14.80
2018-09-17T00:21:31.808Z,14.80
2018-09-17T00:24:00.163Z,14.80
2018-09-17T00:26:29.263Z,14.80
2018-09-17T00:28:57.724Z,14.80
2018-09-17T00:31:26.048Z,14.80
2018-09-17T00:33:54.371Z,14.80
2018-09-17T00:36:22.701Z,14.80
2018-09-17T00:38:51.073Z,14.70
2018-09-17T00:41:19.449Z,14.70
2018-09-17T00:43:47.781Z,14.70
2018-09-17T00:46:16.207Z,14.70
2018-09-17T00:48:44.521Z,14.60
2018-09-17T00:51:12.871Z,14.60
2018-09-17T00:53:41.255Z,14.60
2018-09-17T00:56:09.639Z,14.60
2018-09-17T00:58:37.967Z,14.50
2018-09-17T01:01:06.293Z,14.50
2018-09-17T01:03:34.628Z,14.50
2018-09-17T01:06:03.040Z,14.40
2018-09-17T01:08:31.388Z,14.40
2018-09-17T01:10:59.734Z,14.40
2018-09-17T01:13:28.109Z,14.40
2018-09-17T01:15:56.474Z,14.40
2018-09-17T01:18:24.835Z,14.30
2018-09-17T01:20:53.210Z,14.30
2018-09-17T01:23:21.561Z,14.30
2018-09-17T01:25:50.167Z,14.30
2018-09-17T01:28:19.367Z,14.30
2018-09-17T01:30:48.477Z,14.40
2018-09-17T01:33:16.857Z,14.30
2018-09-17T01:35:45.255Z,14.40
2018-09-17T01:38:13.581Z,14.40
2018-09-17T01:40:41.971Z,14.40
2018-09-17T01:43:11.069Z,14.50
2018-09-17T01:45:40.205Z,14.50
2018-09-17T01:48:08.631Z,14.50
2018-09-17T01:50:37.640Z,14.50
2018-09-17T01:53:05.951Z,14.50
2018-09-17T01:55:34.307Z,14.50
2018-09-17T01:58:02.642Z,14.50
2018-09-17T02:00:31.007Z,14.50
2018-09-17T02:02:59.320Z,14.50
2018-09-17T02:05:27.679Z,14.50
2018-09-17T02:07:56.007Z,14.40
2018-09-17T02:10:24.365Z,14.40
2018-09-17T02:12:53.492Z,14.40
2018-09-17T02:15:21.846Z,14.40
2018-09-17T02:17:50.995Z,14.50
2018-09-17T02:20:19.339Z,14.50
2018-09-17T02:22:47.731Z,14.50
2018-09-17T02:25:16.109Z,14.60
2018-09-17T02:27:44.451Z,14.60
2018-09-17T02:30:13.637Z,14.60
2018-09-17T02:32:41.985Z,14.60
2018-09-17T02:35:10.357Z,14.70
2018-09-17T02:37:38.743Z,14.60
2018-09-17T02:40:07.057Z,14.70
2018-09-17T02:42:35.471Z,14.60
2018-09-17T02:45:03.803Z,14.60
2018-09-17T02:47:32.368Z,14.50
2018-09-17T02:50:00.710Z,14.50
2018-09-17T02:52:29.026Z,14.40
2018-09-17T02:54:57.355Z,14.40
2018-09-17T02:57:26.495Z,14.30
2018-09-17T02:59:54.827Z,14.30
2018-09-17T03:02:23.908Z,14.20
2018-09-17T03:04:53.030Z,14.20
2018-09-17T03:07:21.427Z,14.10
2018-09-17T03:09:49.801Z,14.10
2018-09-17T03:12:18.129Z,14.10
2018-09-17T03:14:46.477Z,14.10
2018-09-17T03:17:14.877Z,14.00
2018-09-17T03:19:43.343Z,14.00
2018-09-17T03:22:11.793Z,14.00
2018-09-17T03:24:40.158Z,14.00
2018-09-17T03:27:08.469Z,14.00
2018-09-17T03:29:36.783Z,14.00
2018-09-17T03:32:05.117Z,14.00
2018-09-17T03:34:33.439Z,14.00
2018-09-17T03:37:01.774Z,13.90
2018-09-17T03:39:30.107Z,13.90
2018-09-17T03:41:58.579Z,13.90
2018-09-17T03:44:26.893Z,13.90
2018-09-17T03:46:56.011Z,13.90
2018-09-17T03:49:25.257Z,13.90
2018-09-17T03:51:53.597Z,13.90
2018-09-17T03:54:21.919Z,13.90
2018-09-17T03:56:50.356Z,13.90
2018-09-17T03:59:18.689Z,13.90
2018-09-17T04:01:47.099Z,13.90
2018-09-17T04:04:15.461Z,13.90
2018-09-17T04:06:43.950Z,14.00
2018-09-17T04:09:13.038Z,14.00
2018-09-17T04:11:41.378Z,14.00
2018-09-17T04:14:09.827Z,14.10
2018-09-17T04:16:38.177Z,14.00
2018-09-17T04:19:06.469Z,14.00
2018-09-17T04:21:34.789Z,14.10
2018-09-17T04:24:03.129Z,14.10
2018-09-17T04:26:31.470Z,14.10
2018-09-17T04:28:59.879Z,14.10
2018-09-17T04:31:28.965Z,14.10
2018-09-17T04:33:58.073Z,14.10
2018-09-17T04:36:26.457Z,14.00
2018-09-17T04:38:55.769Z,14.10
2018-09-17T04:41:24.253Z,14.00
2018-09-17T04:43:52.605Z,14.00
2018-09-17T04:46:21.103Z,14.10
2018-09-17T04:48:49.626Z,14.00
2018-09-17T04:51:17.948Z,14.00
2018-09-17T04:53:47.045Z,14.00
2018-09-17T04:56:15.389Z,14.00
2018-09-17T04:58:43.701Z,14.00
2018-09-17T05:01:12.326Z,14.00
2018-09-17T05:03:40.638Z,13.90
2018-09-17T05:06:09.069Z,13.90
2018-09-17T05:08:37.385Z,13.90
2018-09-17T05:11:05.745Z,14.00
2018-09-17T05:13:34.313Z,14.00
2018-09-17T05:16:02.537Z,14.00
2018-09-17T05:18:30.927Z,14.00
2018-09-17T05:21:00.121Z,14.00
2018-09-17T05:23:28.483Z,14.00
2018-09-17T05:25:56.804Z,14.00
2018-09-17T05:28:26.015Z,14.10
2018-09-17T05:30:54.321Z,14.00
2018-09-17T05:33:22.661Z,14.10
2018-09-17T05:35:50.983Z,14.10
2018-09-17T05:38:19.352Z,14.10
2018-09-17T05:40:47.903Z,14.20
2018-09-17T05:43:16.292Z,14.30
2018-09-17T05:45:44.618Z,14.30
2018-09-17T05:48:13.037Z,14.40
2018-09-17T05:50:41.388Z,14.50
2018-09-17T05:53:10.456Z,14.50
2018-09-17T05:55:38.802Z,14.60
2018-09-17T05:58:07.139Z,14.60
2018-09-17T06:00:35.506Z,14.70
2018-09-17T06:03:03.928Z,14.70
2018-09-17T06:05:32.347Z,14.80
2018-09-17T06:08:00.623Z,14.90
2018-09-17T06:10:28.954Z,14.90
2018-09-17T06:12:57.291Z,15.00
2018-09-17T06:15:25.724Z,15.00
2018-09-17T06:17:54.090Z,15.10
2018-09-17T06:20:23.212Z,15.20
2018-09-17T06:22:51.538Z,15.10
2018-09-17T06:25:20.659Z,15.20
2018-09-17T06:27:48.980Z,15.30
2018-09-17T06:30:17.339Z,15.40
2018-09-17T06:32:46.419Z,15.60
2018-09-17T06:35:14.772Z,15.50
2018-09-17T06:37:43.167Z,15.70
2018-09-17T06:40:11.445Z,15.80
2018-09-17T06:42:39.861Z,15.90
2018-09-17T06:45:08.331Z,16.00
2018-09-17T06:47:36.657Z,16.10
2018-09-17T06:50:05.036Z,16.20
2018-09-17T06:52:33.360Z,16.30
2018-09-17T06:55:02.475Z,16.50
2018-09-17T06:57:30.845Z,16.40
2018-09-17T06:59:59.205Z,16.50
2018-09-17T07:02:28.296Z,16.60
2018-09-17T07:04:57.520Z,16.60
2018-09-17T07:07:25.902Z,16.60
2018-09-17T07:09:54.266Z,16.70
2018-09-17T07:12:22.648Z,16.70
2018-09-17T07:14:51.114Z,16.70
2018-09-17T07:17:20.242Z,16.80
2018-09-17T07:19:48.619Z,16.70
2018-09-17T07:22:17.077Z,16.80
2018-09-17T07:24:45.486Z,16.80
2018-09-17T07:27:13.816Z,16.90
2018-09-17T07:29:42.138Z,16.90
2018-09-17T07:32:10.482Z,17.00
2018-09-17T07:34:39.566Z,17.10
2018-09-17T07:37:08.378Z,17.10
2018-09-17T07:39:37.678Z,17.20
2018-09-17T07:42:06.837Z,17.30
2018-09-17T07:44:35.186Z,17.30
2018-09-17T07:47:03.551Z,17.40
2018-09-17T07:49:31.871Z,17.40
2018-09-17T07:52:00.295Z,17.50
2018-09-17T07:54:28.628Z,17.60
2018-09-17T07:56:56.979Z,17.70
2018-09-17T07:59:25.510Z,17.80
2018-09-17T08:01:53.838Z,17.90
2018-09-17T08:04:22.173Z,18.10
2018-09-17T08:06:51.286Z,18.50
2018-09-17T08:09:19.662Z,18.50
2018-09-17T08:11:48.755Z,18.90
2018-09-17T08:14:17.877Z,18.90
2018-09-17T08:16:46.405Z,19.00
2018-09-17T08:19:14.862Z,19.00
2018-09-17T08:21:43.200Z,19.00
2018-09-17T08:24:11.541Z,19.00
2018-09-17T08:26:39.861Z,19.00
2018-09-17T08:29:08.254Z,19.00
2018-09-17T08:31:37.313Z,19.20
2018-09-17T08:34:05.776Z,19.10
2018-09-17T08:36:34.075Z,19.20
2018-09-17T08:39:03.195Z,19.40
2018-09-17T08:41:31.568Z,19.40
2018-09-17T08:44:00.888Z,19.60
2018-09-17T08:46:30.010Z,19.80
2018-09-17T08:48:58.495Z,19.80
2018-09-17T08:51:26.919Z,19.90
2018-09-17T08:53:55.403Z,19.90
2018-09-17T08:56:24.511Z,20.00
2018-09-17T08:58:53.603Z,20.10
2018-09-17T09:01:22.711Z,20.20
2018-09-17T09:03:51.064Z,20.20
2018-09-17T09:06:19.463Z,20.30
2018-09-17T09:08:47.781Z,20.40
2018-09-17T09:11:16.109Z,20.50
2018-09-17T09:13:45.293Z,20.80
2018-09-17T09:16:14.525Z,20.90
2018-09-17T09:18:43.136Z,20.90
2018-09-17T09:21:11.432Z,21.00
2018-09-17T09:23:39.778Z,21.20
2018-09-17T09:26:08.121Z,21.40
2018-09-17T09:28:36.442Z,21.40
2018-09-17T09:31:04.766Z,21.70
2018-09-17T09:33:33.871Z,22.30
2018-09-17T09:36:02.206Z,22.20
2018-09-17T09:38:30.546Z,22.60
2018-09-17T09:40:58.921Z,23.00
2018-09-17T09:43:27.313Z,23.30
2018-09-17T09:45:55.640Z,23.60
2018-09-17T09:48:24.066Z,23.80
2018-09-17T09:50:52.454Z,24.10
2018-09-17T09:53:20.795Z,24.30
2018-09-17T09:55:49.903Z,24.60
2018-09-17T09:58:18.229Z,24.60
2018-09-17T10:00:46.604Z,24.80
2018-09-17T10:03:14.963Z,25.20
2018-09-17T10:05:44.059Z,25.60
2018-09-17T10:08:12.426Z,25.50
2018-09-17T10:16:36.113Z,26.80
2018-09-17T10:19:22.273Z,26.70
2018-09-17T10:21:51.313Z,27.40
2018-09-17T10:24:20.417Z,27.50
2018-09-17T10:26:49.628Z,27.80
2018-09-17T10:29:18.009Z,27.80
2018-09-17T10:31:46.335Z,28.10
2018-09-17T10:34:14.777Z,28.30
2018-09-17T10:36:43.349Z,28.40
2018-09-17T10:39:11.838Z,28.60
2018-09-17T10:41:40.315Z,28.80
2018-09-17T10:44:08.694Z,29.00
2018-09-17T10:46:37.757Z,29.00
2018-09-17T10:49:06.871Z,28.00
2018-09-17T10:51:35.964Z,27.90
2018-09-17T10:54:04.317Z,28.00
2018-09-17T10:56:32.637Z,28.40
2018-09-17T10:59:00.992Z,28.50
2018-09-17T11:01:30.153Z,29.30
2018-09-17T11:03:58.504Z,29.30
2018-09-17T11:06:27.448Z,29.70
2018-09-17T11:08:55.795Z,29.90
2018-09-17T11:11:24.195Z,30.20
2018-09-17T11:13:53.534Z,30.40
2018-09-17T11:16:22.630Z,30.90
2018-09-17T11:18:51.840Z,31.00
2018-09-17T11:21:20.176Z,31.00
2018-09-17T11:23:48.497Z,31.00
2018-09-17T11:26:16.875Z,31.10
2018-09-17T11:28:45.360Z,31.10
2018-09-17T11:31:13.769Z,31.30
2018-09-17T11:33:42.161Z,31.30
2018-09-17T11:36:10.541Z,31.30
2018-09-17T11:38:38.864Z,31.60
2018-09-17T11:41:07.993Z,31.30
2018-09-17T11:43:36.310Z,31.30
2018-09-17T11:46:04.732Z,31.10
2018-09-17T11:48:33.114Z,30.80
2018-09-17T11:51:01.825Z,30.40
2018-09-17T11:53:31.310Z,30.10
2018-09-17T11:56:00.312Z,30.10
2018-09-17T11:58:28.673Z,29.90
2018-09-17T12:00:57.010Z,29.80
2018-09-17T12:03:25.478Z,29.50
2018-09-17T12:05:53.848Z,29.30
2018-09-17T12:08:22.162Z,29.50
2018-09-17T12:10:50.590Z,29.50
2018-09-17T12:13:18.988Z,29.70
2018-09-17T12:15:47.337Z,30.00
2018-09-17T12:18:15.804Z,30.30
2018-09-17T12:20:44.893Z,31.20
2018-09-17T12:23:14.024Z,31.60
2018-09-17T12:25:42.348Z,31.60
2018-09-17T12:28:10.774Z,32.10
2018-09-17T12:30:39.098Z,32.00
2018-09-17T12:33:07.566Z,31.70
2018-09-17T12:35:35.962Z,31.50
2018-09-17T12:38:05.738Z,31.90
2018-09-17T12:40:34.081Z,31.90
2018-09-17T12:43:03.231Z,31.70
2018-09-17T12:45:31.570Z,31.70
2018-09-17T12:47:59.972Z,32.00
2018-09-17T12:50:28.383Z,32.10
2018-09-17T12:52:56.783Z,32.20
2018-09-17T12:55:25.200Z,32.60
2018-09-17T12:57:53.593Z,32.20
2018-09-17T13:00:21.957Z,32.70
2018-09-17T13:02:50.283Z,33.20
2018-09-17T13:05:18.633Z,33.20
2018-09-17T13:07:46.956Z,33.20
2018-09-17T13:10:15.506Z,32.90
2018-09-17T13:12:43.935Z,32.70
2018-09-17T13:15:13.062Z,33.30
2018-09-17T13:17:41.403Z,33.30
2018-09-17T13:20:10.536Z,33.60
2018-09-17T13:22:38.890Z,33.60
2018-09-17T13:25:08.001Z,34.00
2018-09-17T13:27:42.511Z,34.00
2018-09-17T13:30:10.834Z,33.10
2018-09-17T13:32:39.282Z,33.20
2018-09-17T13:35:07.629Z,32.90
2018-09-17T13:37:36.056Z,33.00
2018-09-17T13:40:04.431Z,32.70
2018-09-17T13:42:32.862Z,32.00
2018-09-17T13:45:01.878Z,31.60
2018-09-17T13:47:31.036Z,31.90
2018-09-17T13:49:59.406Z,31.80
2018-09-17T13:52:27.876Z,32.10
2018-09-17T13:54:57.062Z,33.10
2018-09-17T13:57:25.400Z,33.10
2018-09-17T13:59:53.875Z,33.60
2018-09-17T14:02:22.364Z,33.40
2018-09-17T14:04:51.051Z,33.40
2018-09-17T14:07:19.504Z,33.20
2018-09-17T14:09:47.889Z,32.80
2018-09-17T14:12:18.681Z,32.50
2018-09-17T14:14:47.294Z,32.80
2018-09-17T14:17:15.647Z,32.60
2018-09-17T14:19:43.997Z,32.80
2018-09-17T14:22:12.415Z,33.10
2018-09-17T14:24:40.740Z,33.00
2018-09-17T14:27:09.193Z,32.70
2018-09-17T14:29:37.505Z,32.40
2018-09-17T14:32:05.874Z,32.10
2018-09-17T14:34:34.326Z,31.80
2018-09-17T14:37:02.743Z,31.20
2018-09-17T14:39:31.052Z,31.20
2018-09-17T14:41:59.600Z,30.90
2018-09-17T14:44:27.920Z,30.90
2018-09-17T14:46:57.002Z,31.50
2018-09-17T14:49:26.104Z,31.10
2018-09-17T14:51:54.435Z,31.10
2018-09-17T14:54:22.835Z,31.10
2018-09-17T14:56:51.197Z,31.10
2018-09-17T14:59:19.578Z,31.00
2018-09-17T15:01:48.053Z,30.90
2018-09-17T15:04:16.446Z,30.60
2018-09-17T15:06:44.718Z,30.60
2018-09-17T15:09:13.210Z,30.80
2018-09-17T15:11:41.521Z,30.70
2018-09-17T15:14:10.043Z,30.30
2018-09-17T15:16:38.398Z,30.50
2018-09-17T15:19:06.772Z,30.70
2018-09-17T15:21:35.126Z,30.70
2018-09-17T15:24:04.393Z,30.60
2018-09-17T15:26:32.815Z,30.70
2018-09-17T15:29:00.994Z,30.50
2018-09-17T15:31:29.354Z,30.40
2018-09-17T15:33:57.699Z,30.20
2018-09-17T15:36:26.102Z,29.90
2018-09-17T15:38:54.506Z,29.70
2018-09-17T15:41:22.981Z,29.40
2018-09-17T15:43:51.323Z,29.20
2018-09-17T15:46:19.822Z,29.10
2018-09-17T15:48:48.459Z,28.70
2018-09-17T15:51:16.797Z,28.50
2018-09-17T15:53:45.113Z,28.60
2018-09-17T15:56:13.529Z,28.50
2018-09-17T15:58:41.880Z,28.40
2018-09-17T16:01:10.973Z,28.30
2018-09-17T16:03:39.306Z,28.10
2018-09-17T16:06:07.740Z,27.80
2018-09-17T16:08:36.093Z,27.80
2018-09-17T16:11:04.452Z,27.60
2018-09-17T16:13:33.700Z,27.20
2018-09-17T16:16:02.224Z,27.20
2018-09-17T16:18:30.579Z,26.90
2018-09-17T16:20:58.918Z,26.80
2018-09-17T16:23:27.272Z,26.60
2018-09-17T16:25:56.369Z,26.40
2018-09-17T16:28:25.455Z,26.30
2018-09-17T16:30:54.578Z,26.20
2018-09-17T16:33:22.968Z,26.20
2018-09-17T16:35:51.353Z,26.10
2018-09-17T16:38:19.715Z,26.00
2018-09-17T16:40:48.749Z,26.00
2018-09-17T16:43:17.083Z,25.90
2018-09-17T16:45:46.638Z,25.50
2018-09-17T16:48:15.201Z,25.50
2018-09-17T16:50:43.899Z,25.40
2018-09-17T16:53:12.249Z,25.20
2018-09-17T16:55:40.841Z,25.00
2018-09-17T16:58:10.095Z,24.70
2018-09-17T17:00:38.519Z,24.70
2018-09-17T17:03:06.875Z,24.60
2018-09-17T17:05:36.136Z,24.30
2018-09-17T17:08:04.471Z,24.30
2018-09-17T17:10:32.860Z,24.20
2018-09-17T17:13:01.207Z,24.00
2018-09-17T17:15:29.876Z,23.90
2018-09-17T17:17:58.233Z,23.70
2018-09-17T17:20:26.563Z,23.50
2018-09-17T17:22:54.950Z,23.40
2018-09-17T17:25:23.273Z,23.20
2018-09-17T17:27:51.784Z,23.10
2018-09-17T17:30:20.253Z,22.90
2018-09-17T17:32:48.641Z,22.80
2018-09-17T17:35:16.971Z,22.60
2018-09-17T17:37:45.299Z,22.50
2018-09-17T17:40:13.764Z,22.30
2018-09-17T17:42:42.080Z,22.10
2018-09-17T17:45:10.427Z,22.00
2018-09-17T17:47:38.791Z,21.90
2018-09-17T17:50:07.413Z,21.80
2018-09-17T17:52:36.531Z,21.60
2018-09-17T17:55:04.897Z,21.50
2018-09-17T17:57:34.025Z,21.40
2018-09-17T18:00:02.379Z,21.30
2018-09-17T18:02:30.773Z,21.30
2018-09-17T18:04:59.346Z,21.20
2018-09-17T18:07:28.564Z,21.10
2018-09-17T18:09:56.882Z,21.00
2018-09-17T18:12:25.361Z,20.90
2018-09-17T18:14:53.763Z,20.90
2018-09-17T18:17:22.178Z,20.80
2018-09-17T18:19:50.528Z,20.70
2018-09-17T18:22:19.660Z,20.50
2018-09-17T18:24:48.090Z,20.50
2018-09-17T18:27:17.361Z,20.40
2018-09-17T18:29:45.722Z,20.40
2018-09-17T18:32:14.159Z,20.30
2018-09-17T18:34:43.323Z,20.20
2018-09-17T18:37:11.655Z,20.20
2018-09-17T18:39:40.146Z,20.20
2018-09-17T18:42:08.373Z,20.10
2018-09-17T18:44:36.679Z,20.10
2018-09-17T18:47:05.820Z,20.00
2018-09-17T18:49:34.317Z,20.00
2018-09-17T18:52:02.677Z,20.00
2018-09-17T18:54:31.059Z,20.00
2018-09-17T18:56:59.587Z,19.90
2018-09-17T18:59:27.885Z,19.90
2018-09-17T19:01:56.304Z,19.80
2018-09-17T19:04:24.797Z,19.80
2018-09-17T19:06:53.151Z,19.70
2018-09-17T19:09:21.554Z,19.60
2018-09-17T19:11:50.151Z,19.60
2018-09-17T19:14:18.471Z,19.50
2018-09-17T19:16:47.642Z,19.40
2018-09-17T19:19:16.007Z,19.40
2018-09-17T19:21:44.391Z,19.40
2018-09-17T19:24:12.817Z,19.40
2018-09-17T19:26:41.205Z,19.40
2018-09-17T19:29:16.303Z,19.40
2018-09-17T19:31:44.698Z,19.30
2018-09-17T19:34:13.156Z,19.30
2018-09-17T19:36:41.794Z,19.20
2018-09-17T19:39:15.699Z,19.20
2018-09-17T19:41:44.220Z,19.20
2018-09-17T19:44:12.585Z,19.20
2018-09-17T19:46:40.892Z,19.10
2018-09-17T19:49:09.267Z,19.10
2018-09-17T19:54:37.649Z,19.10
2018-09-17T19:57:06.043Z,19.10
2018-09-17T19:59:49.425Z,19.20
2018-09-17T20:02:17.827Z,19.20
2018-09-17T20:04:46.247Z,19.20
2018-09-17T20:07:14.802Z,19.30
2018-09-17T20:09:44.153Z,19.30
2018-09-17T20:12:12.537Z,19.30
2018-09-17T20:14:41.712Z,19.20
2018-09-17T20:17:10.091Z,19.20
2018-09-17T20:19:38.436Z,19.20
2018-09-17T20:22:06.773Z,19.10
2018-09-17T20:24:35.282Z,19.10
2018-09-17T20:27:03.797Z,19.10
2018-09-17T20:29:32.252Z,19.00
2018-09-17T20:32:00.612Z,19.00
2018-09-17T20:34:29.746Z,19.00
2018-09-17T20:36:58.083Z,19.00
2018-09-17T20:39:26.433Z,19.00
2018-09-17T20:41:54.817Z,19.00
2018-09-17T20:44:25.040Z,18.90
2018-09-17T20:46:54.233Z,18.90
2018-09-17T20:49:23.604Z,18.80
2018-09-17T20:51:51.956Z,18.80
2018-09-17T20:54:20.367Z,18.80
2018-09-17T20:56:48.713Z,18.80
2018-09-17T20:59:17.053Z,18.70
2018-09-17T21:01:45.455Z,18.70
2018-09-17T21:04:13.768Z,18.70
2018-09-17T21:06:42.194Z,18.70
2018-09-17T21:09:10.500Z,18.70
2018-09-17T21:11:38.830Z,18.60
2018-09-17T21:14:07.173Z,18.60
2018-09-17T21:16:35.515Z,18.60
2018-09-17T21:19:04.730Z,18.50
2018-09-17T21:21:34.983Z,18.50
2018-09-17T21:24:04.325Z,18.50
2018-09-17T21:26:32.809Z,18.40
2018-09-17T21:29:01.168Z,18.40
2018-09-17T21:31:29.591Z,18.40
2018-09-17T21:33:58.436Z,18.40
2018-09-17T21:36:26.706Z,18.30
2018-09-17T21:38:55.037Z,18.30
2018-09-17T21:41:23.488Z,18.30
2018-09-17T21:43:51.831Z,18.20
2018-09-17T21:46:20.255Z,18.10
2018-09-17T21:48:49.358Z,18.00
2018-09-17T21:51:18.515Z,17.90
2018-09-17T21:53:46.963Z,17.80
2018-09-17T21:56:15.868Z,17.80
2018-09-17T21:58:44.210Z,17.80
2018-09-17T22:01:12.673Z,17.70
2018-09-17T22:03:41.018Z,17.70
2018-09-17T22:06:09.351Z,17.70
2018-09-17T22:08:37.697Z,17.60
2018-09-17T22:11:06.133Z,17.60
2018-09-17T22:13:35.269Z,17.60
2018-09-17T22:16:03.824Z,17.50
2018-09-17T22:18:32.359Z,17.50
2018-09-17T22:21:00.767Z,17.50
2018-09-17T22:23:29.092Z,17.50
2018-09-17T22:25:57.477Z,17.50
2018-09-17T22:28:25.840Z,17.50
2018-09-17T22:30:54.234Z,17.50
2018-09-17T22:33:22.563Z,17.50
2018-09-17T22:35:51.807Z,17.40
2018-09-17T22:38:20.305Z,17.40
2018-09-17T22:40:48.659Z,17.30
2018-09-17T22:43:17.073Z,17.30
2018-09-17T22:45:46.203Z,17.20
2018-09-17T22:48:15.329Z,17.20
2018-09-17T22:50:44.237Z,17.20
2018-09-17T22:53:13.471Z,17.10
2018-09-17T22:55:41.900Z,17.10
2018-09-17T22:58:10.241Z,17.10
2018-09-17T23:00:38.620Z,17.10
2018-09-17T23:03:07.107Z,17.00
2018-09-17T23:05:35.546Z,17.00
2018-09-17T23:08:03.936Z,17.00
2018-09-17T23:10:33.041Z,16.90
2018-09-17T23:13:02.327Z,16.90
2018-09-17T23:15:30.739Z,16.90
2018-09-17T23:17:59.117Z,16.90
2018-09-17T23:20:27.467Z,16.80
2018-09-17T23:22:55.807Z,16.80
2018-09-17T23:25:24.189Z,16.80
2018-09-17T23:27:52.529Z,16.70
2018-09-17T23:30:21.008Z,16.70
2018-09-17T23:32:49.575Z,16.70
2018-09-17T23:35:18.022Z,16.60
2018-09-17T23:37:46.352Z,16.60
2018-09-17T23:40:14.713Z,16.60
2018-09-17T23:42:43.132Z,16.60
2018-09-17T23:45:11.513Z,16.60
2018-09-17T23:47:39.866Z,16.60
2018-09-17T23:50:08.950Z,16.50
2018-09-17T23:52:37.394Z,16.50
2018-09-17T23:55:05.796Z,16.50
2018-09-17T23:57:34.117Z,16.50
